sensor_id;sensor_type;location;lat;lon;timestamp;P1;durP1;ratioP1;P2;durP2;ratioP2
2470;SDS011;1246;53.558;9.940;2022-08-07T01:53:33;13.20;;;11.73;;
2470;SDS011;1246;53.558;9.940;2022-08-07T01:57:02;11.40;;;10.30;;
2470;SDS011;1246;53.558;9.940;2022-08-07T01:59:04;13.47;;;11.60;;
2470;SDS011;1246;53.558;9.940;2022-08-07T02:01:32;13.50;;;11.23;;
2470;SDS011;1246;53.558;9.940;2022-08-07T02:04:15;12.47;;;11.17;;
2470;SDS011;1246;53.558;9.940;2022-08-07T02:06:53;11.97;;;10.80;;
2470;SDS011;1246;53.558;9.940;2022-08-07T02:09:20;13.20;;;11.80;;
2470;SDS011;1246;53.558;9.940;2022-08-07T02:11:47;13.77;;;11.87;;
2470;SDS011;1246;53.558;9.940;2022-08-07T02:14:13;12.97;;;11.60;;
2470;SDS011;1246;53.558;9.940;2022-08-07T02:16:39;12.90;;;11.57;;
2470;SDS011;1246;53.558;9.940;2022-08-07T02:19:07;12.50;;;11.20;;
2470;SDS011;1246;53.558;9.940;2022-08-07T02:21:35;14.07;;;11.97;;
2470;SDS011;1246;53.558;9.940;2022-08-07T02:24:01;14.50;;;11.50;;
2470;SDS011;1246;53.558;9.940;2022-08-07T02:26:28;14.40;;;12.07;;
2470;SDS011;1246;53.558;9.940;2022-08-07T02:28:54;14.03;;;11.53;;
2470;SDS011;1246;53.558;9.940;2022-08-07T02:31:19;14.43;;;11.97;;
2470;SDS011;1246;53.558;9.940;2022-08-07T02:33:46;12.67;;;11.37;;
2470;SDS011;1246;53.558;9.940;2022-08-07T02:36:11;12.63;;;11.27;;
2470;SDS011;1246;53.558;9.940;2022-08-07T02:38:38;13.17;;;11.57;;
2470;SDS011;1246;53.558;9.940;2022-08-07T02:41:04;12.50;;;11.20;;
2470;SDS011;1246;53.558;9.940;2022-08-07T02:43:29;11.90;;;10.70;;
2470;SDS011;1246;53.558;9.940;2022-08-07T02:45:58;12.63;;;10.90;;
2470;SDS011;1246;53.558;9.940;2022-08-07T02:48:24;12.13;;;10.93;;
2470;SDS011;1246;53.558;9.940;2022-08-07T02:50:52;11.90;;;10.70;;
2470;SDS011;1246;53.558;9.940;2022-08-07T02:53:23;13.10;;;11.70;;
2470;SDS011;1246;53.558;9.940;2022-08-07T02:55:49;12.00;;;10.83;;
2470;SDS011;1246;53.558;9.940;2022-08-07T02:58:16;12.33;;;11.10;;
2470;SDS011;1246;53.558;9.940;2022-08-07T03:00:43;11.90;;;10.47;;
2470;SDS011;1246;53.558;9.940;2022-08-07T03:03:09;12.27;;;11.07;;
2470;SDS011;1246;53.558;9.940;2022-08-07T03:05:35;12.47;;;11.17;;
2470;SDS011;1246;53.558;9.940;2022-08-07T03:08:02;13.10;;;11.70;;
2470;SDS011;1246;53.558;9.940;2022-08-07T03:10:28;13.47;;;11.80;;
2470;SDS011;1246;53.558;9.940;2022-08-07T03:12:55;12.60;;;11.33;;
2470;SDS011;1246;53.558;9.940;2022-08-07T03:15:21;13.77;;;11.20;;
2470;SDS011;1246;53.558;9.940;2022-08-07T03:17:46;12.63;;;11.40;;
2470;SDS011;1246;53.558;9.940;2022-08-07T03:20:12;13.53;;;11.10;;
2470;SDS011;1246;53.558;9.940;2022-08-07T03:22:39;13.07;;;11.70;;
2470;SDS011;1246;53.558;9.940;2022-08-07T03:25:06;12.90;;;11.60;;
2470;SDS011;1246;53.558;9.940;2022-08-07T03:27:31;13.00;;;11.60;;
2470;SDS011;1246;53.558;9.940;2022-08-07T03:29:57;12.93;;;11.63;;
2470;SDS011;1246;53.558;9.940;2022-08-07T03:32:24;13.80;;;12.33;;
2470;SDS011;1246;53.558;9.940;2022-08-07T03:34:54;12.60;;;11.30;;
2470;SDS011;1246;53.558;9.940;2022-08-07T03:37:22;13.67;;;11.80;;
2470;SDS011;1246;53.558;9.940;2022-08-07T03:39:48;14.33;;;11.90;;
2470;SDS011;1246;53.558;9.940;2022-08-07T03:42:14;13.07;;;11.80;;
2470;SDS011;1246;53.558;9.940;2022-08-07T03:44:40;13.00;;;11.60;;
2470;SDS011;1246;53.558;9.940;2022-08-07T03:47:06;15.20;;;11.87;;
2470;SDS011;1246;53.558;9.940;2022-08-07T03:49:32;12.00;;;10.53;;
2470;SDS011;1246;53.558;9.940;2022-08-07T03:51:58;12.93;;;11.63;;
2470;SDS011;1246;53.558;9.940;2022-08-07T03:54:24;12.33;;;11.07;;
2470;SDS011;1246;53.558;9.940;2022-08-07T03:56:49;13.17;;;11.83;;
2470;SDS011;1246;53.558;9.940;2022-08-07T03:59:15;14.57;;;13.00;;
2470;SDS011;1246;53.558;9.940;2022-08-07T04:01:41;14.90;;;12.03;;
2470;SDS011;1246;53.558;9.940;2022-08-07T04:04:08;12.93;;;11.63;;
2470;SDS011;1246;53.558;9.940;2022-08-07T04:06:35;14.27;;;12.20;;
2470;SDS011;1246;53.558;9.940;2022-08-07T04:09:00;15.77;;;11.93;;
2470;SDS011;1246;53.558;9.940;2022-08-07T04:11:26;13.67;;;12.03;;
2470;SDS011;1246;53.558;9.940;2022-08-07T04:13:52;14.30;;;12.80;;
2470;SDS011;1246;53.558;9.940;2022-08-07T04:16:18;14.60;;;13.10;;
2470;SDS011;1246;53.558;9.940;2022-08-07T04:18:44;13.53;;;12.03;;
2470;SDS011;1246;53.558;9.940;2022-08-07T04:21:10;13.40;;;11.97;;
2470;SDS011;1246;53.558;9.940;2022-08-07T04:23:35;13.10;;;11.53;;
2470;SDS011;1246;53.558;9.940;2022-08-07T04:26:02;14.63;;;11.87;;
2470;SDS011;1246;53.558;9.940;2022-08-07T04:28:29;13.37;;;11.70;;
2470;SDS011;1246;53.558;9.940;2022-08-07T04:30:55;11.93;;;10.83;;
2470;SDS011;1246;53.558;9.940;2022-08-07T04:33:20;12.13;;;10.93;;
2470;SDS011;1246;53.558;9.940;2022-08-07T04:35:46;11.73;;;10.33;;
2470;SDS011;1246;53.558;9.940;2022-08-07T04:38:12;13.60;;;11.07;;
2470;SDS011;1246;53.558;9.940;2022-08-07T04:40:39;12.10;;;10.90;;
2470;SDS011;1246;53.558;9.940;2022-08-07T04:43:06;12.13;;;11.03;;
2470;SDS011;1246;53.558;9.940;2022-08-07T04:45:39;10.53;;;9.53;;
2470;SDS011;1246;53.558;9.940;2022-08-07T04:48:11;10.43;;;9.43;;
2470;SDS011;1246;53.558;9.940;2022-08-07T04:50:44;10.83;;;9.93;;
2470;SDS011;1246;53.558;9.940;2022-08-07T04:58:45;11.10;;;10.00;;
2470;SDS011;1246;53.558;9.940;2022-08-07T05:07:10;10.40;;;9.30;;
2470;SDS011;1246;53.558;9.940;2022-08-07T05:09:43;11.30;;;10.23;;
2470;SDS011;1246;53.558;9.940;2022-08-07T05:12:15;10.97;;;9.97;;
2470;SDS011;1246;53.558;9.940;2022-08-07T05:14:43;10.87;;;9.77;;
2470;SDS011;1246;53.558;9.940;2022-08-07T05:17:11;10.73;;;9.70;;
2470;SDS011;1246;53.558;9.940;2022-08-07T05:19:43;10.07;;;9.17;;
2470;SDS011;1246;53.558;9.940;2022-08-07T05:22:11;11.83;;;10.17;;
2470;SDS011;1246;53.558;9.940;2022-08-07T05:24:38;9.70;;;8.80;;
2470;SDS011;1246;53.558;9.940;2022-08-07T05:27:04;10.80;;;9.70;;
2470;SDS011;1246;53.558;9.940;2022-08-07T05:29:33;11.10;;;10.00;;
2470;SDS011;1246;53.558;9.940;2022-08-07T05:32:01;10.40;;;9.40;;
2470;SDS011;1246;53.558;9.940;2022-08-07T05:34:27;10.20;;;9.20;;
2470;SDS011;1246;53.558;9.940;2022-08-07T05:36:52;10.03;;;9.13;;
2470;SDS011;1246;53.558;9.940;2022-08-07T05:39:20;9.90;;;8.90;;
2470;SDS011;1246;53.558;9.940;2022-08-07T05:41:46;10.13;;;9.00;;
2470;SDS011;1246;53.558;9.940;2022-08-07T05:44:13;10.03;;;9.03;;
2470;SDS011;1246;53.558;9.940;2022-08-07T05:46:40;9.80;;;8.90;;
2470;SDS011;1246;53.558;9.940;2022-08-07T05:49:06;10.70;;;9.70;;
2470;SDS011;1246;53.558;9.940;2022-08-07T05:51:32;11.50;;;8.50;;
2470;SDS011;1246;53.558;9.940;2022-08-07T05:53:58;9.40;;;8.53;;
2470;SDS011;1246;53.558;9.940;2022-08-07T05:56:23;8.90;;;8.10;;
2470;SDS011;1246;53.558;9.940;2022-08-07T05:58:49;9.43;;;8.27;;
2470;SDS011;1246;53.558;9.940;2022-08-07T06:01:14;11.67;;;8.10;;
2470;SDS011;1246;53.558;9.940;2022-08-07T06:03:42;8.30;;;7.50;;
2470;SDS011;1246;53.558;9.940;2022-08-07T06:06:10;10.20;;;8.70;;
2470;SDS011;1246;53.558;9.940;2022-08-07T06:08:37;8.90;;;7.33;;
2470;SDS011;1246;53.558;9.940;2022-08-07T06:11:04;8.50;;;7.60;;
2470;SDS011;1246;53.558;9.940;2022-08-07T06:13:29;9.67;;;8.10;;
2470;SDS011;1246;53.558;9.940;2022-08-07T06:15:54;8.40;;;7.60;;
2470;SDS011;1246;53.558;9.940;2022-08-07T06:18:22;8.43;;;6.90;;
2470;SDS011;1246;53.558;9.940;2022-08-07T06:20:47;9.00;;;7.47;;
2470;SDS011;1246;53.558;9.940;2022-08-07T06:23:13;6.73;;;6.03;;
2470;SDS011;1246;53.558;9.940;2022-08-07T06:25:38;10.73;;;7.03;;
2470;SDS011;1246;53.558;9.940;2022-08-07T06:28:06;7.83;;;6.30;;
2470;SDS011;1246;53.558;9.940;2022-08-07T06:30:33;8.97;;;5.93;;
2470;SDS011;1246;53.558;9.940;2022-08-07T06:32:59;6.60;;;5.90;;
2470;SDS011;1246;53.558;9.940;2022-08-07T06:35:25;6.10;;;5.50;;
2470;SDS011;1246;53.558;9.940;2022-08-07T06:37:50;5.63;;;5.00;;
2470;SDS011;1246;53.558;9.940;2022-08-07T06:40:16;6.83;;;6.03;;
2470;SDS011;1246;53.558;9.940;2022-08-07T06:42:42;6.37;;;5.77;;
2470;SDS011;1246;53.558;9.940;2022-08-07T06:45:10;6.47;;;5.80;;
2470;SDS011;1246;53.558;9.940;2022-08-07T06:47:38;7.00;;;5.57;;
2470;SDS011;1246;53.558;9.940;2022-08-07T06:50:04;5.33;;;4.87;;
2470;SDS011;1246;53.558;9.940;2022-08-07T06:52:32;5.63;;;5.13;;
2470;SDS011;1246;53.558;9.940;2022-08-07T06:55:00;5.77;;;5.07;;
2470;SDS011;1246;53.558;9.940;2022-08-07T06:57:27;5.90;;;4.60;;
2470;SDS011;1246;53.558;9.940;2022-08-07T06:59:54;7.63;;;5.30;;
2470;SDS011;1246;53.558;9.940;2022-08-07T07:02:20;5.63;;;5.03;;
2470;SDS011;1246;53.558;9.940;2022-08-07T07:04:46;7.83;;;5.30;;
2470;SDS011;1246;53.558;9.940;2022-08-07T07:07:11;5.60;;;5.00;;
2470;SDS011;1246;53.558;9.940;2022-08-07T07:09:42;5.60;;;5.00;;
2470;SDS011;1246;53.558;9.940;2022-08-07T07:14:43;7.10;;;5.10;;
2470;SDS011;1246;53.558;9.940;2022-08-07T07:17:17;6.67;;;5.63;;
2470;SDS011;1246;53.558;9.940;2022-08-07T07:19:47;5.23;;;4.70;;
2470;SDS011;1246;53.558;9.940;2022-08-07T07:22:15;5.40;;;5.00;;
2470;SDS011;1246;53.558;9.940;2022-08-07T07:24:41;5.37;;;4.87;;
2470;SDS011;1246;53.558;9.940;2022-08-07T07:27:07;7.73;;;5.53;;
2470;SDS011;1246;53.558;9.940;2022-08-07T07:29:35;5.93;;;5.27;;
2470;SDS011;1246;53.558;9.940;2022-08-07T07:32:04;5.13;;;4.73;;
2470;SDS011;1246;53.558;9.940;2022-08-07T07:34:32;5.87;;;4.70;;
2470;SDS011;1246;53.558;9.940;2022-08-07T07:36:59;5.73;;;5.20;;
2470;SDS011;1246;53.558;9.940;2022-08-07T07:39:26;7.23;;;4.60;;
2470;SDS011;1246;53.558;9.940;2022-08-07T07:41:53;5.00;;;4.60;;
2470;SDS011;1246;53.558;9.940;2022-08-07T07:44:19;5.50;;;4.73;;
2470;SDS011;1246;53.558;9.940;2022-08-07T07:46:45;5.30;;;4.80;;
2470;SDS011;1246;53.558;9.940;2022-08-07T07:49:14;6.43;;;4.90;;
2470;SDS011;1246;53.558;9.940;2022-08-07T07:51:40;5.43;;;4.70;;
2470;SDS011;1246;53.558;9.940;2022-08-07T07:54:06;5.00;;;4.60;;
2470;SDS011;1246;53.558;9.940;2022-08-07T07:56:31;4.60;;;4.20;;
2470;SDS011;1246;53.558;9.940;2022-08-07T07:59:02;5.13;;;4.63;;
2470;SDS011;1246;53.558;9.940;2022-08-07T08:01:32;5.77;;;5.00;;
2470;SDS011;1246;53.558;9.940;2022-08-07T08:03:59;6.03;;;4.80;;
2470;SDS011;1246;53.558;9.940;2022-08-07T08:06:27;5.27;;;4.77;;
2470;SDS011;1246;53.558;9.940;2022-08-07T08:08:54;5.43;;;4.93;;
2470;SDS011;1246;53.558;9.940;2022-08-07T08:11:20;5.47;;;5.03;;
2470;SDS011;1246;53.558;9.940;2022-08-07T08:13:46;5.30;;;4.80;;
2470;SDS011;1246;53.558;9.940;2022-08-07T08:16:17;5.17;;;4.63;;
2470;SDS011;1246;53.558;9.940;2022-08-07T08:18:44;5.37;;;4.97;;
2470;SDS011;1246;53.558;9.940;2022-08-07T08:21:10;5.13;;;4.50;;
2470;SDS011;1246;53.558;9.940;2022-08-07T08:24:03;5.20;;;4.80;;
2470;SDS011;1246;53.558;9.940;2022-08-07T08:26:49;5.07;;;4.67;;
2470;SDS011;1246;53.558;9.940;2022-08-07T08:29:39;5.10;;;4.63;;
2470;SDS011;1246;53.558;9.940;2022-08-07T08:32:07;4.80;;;4.50;;
2470;SDS011;1246;53.558;9.940;2022-08-07T08:34:34;4.73;;;4.43;;
2470;SDS011;1246;53.558;9.940;2022-08-07T08:37:02;4.60;;;4.30;;
2470;SDS011;1246;53.558;9.940;2022-08-07T08:39:27;5.40;;;4.90;;
2470;SDS011;1246;53.558;9.940;2022-08-07T08:41:58;5.00;;;4.60;;
2470;SDS011;1246;53.558;9.940;2022-08-07T08:47:04;4.60;;;4.30;;
2470;SDS011;1246;53.558;9.940;2022-08-07T08:52:18;5.00;;;4.70;;
2470;SDS011;1246;53.558;9.940;2022-08-07T08:54:57;4.60;;;4.30;;
2470;SDS011;1246;53.558;9.940;2022-08-07T08:57:26;4.67;;;4.37;;
2470;SDS011;1246;53.558;9.940;2022-08-07T09:00:04;6.33;;;5.53;;
2470;SDS011;1246;53.558;9.940;2022-08-07T09:02:39;6.20;;;5.80;;
2470;SDS011;1246;53.558;9.940;2022-08-07T09:05:17;5.00;;;4.60;;
2470;SDS011;1246;53.558;9.940;2022-08-07T09:07:58;8.80;;;4.60;;
2470;SDS011;1246;53.558;9.940;2022-08-07T09:10:47;4.70;;;4.40;;
2470;SDS011;1246;53.558;9.940;2022-08-07T09:13:22;5.27;;;4.40;;
2470;SDS011;1246;53.558;9.940;2022-08-07T09:21:11;5.10;;;4.70;;
2470;SDS011;1246;53.558;9.940;2022-08-07T09:26:52;5.00;;;4.60;;
2470;SDS011;1246;53.558;9.940;2022-08-07T09:29:23;7.67;;;5.87;;
2470;SDS011;1246;53.558;9.940;2022-08-07T09:31:55;5.50;;;4.93;;
2470;SDS011;1246;53.558;9.940;2022-08-07T09:34:28;4.87;;;4.47;;
2470;SDS011;1246;53.558;9.940;2022-08-07T09:36:59;8.40;;;4.90;;
2470;SDS011;1246;53.558;9.940;2022-08-07T09:45:43;6.30;;;4.63;;
2470;SDS011;1246;53.558;9.940;2022-08-07T09:48:26;4.97;;;4.57;;
2470;SDS011;1246;53.558;9.940;2022-08-07T09:53:37;4.90;;;4.50;;
2470;SDS011;1246;53.558;9.940;2022-08-07T09:59:23;5.30;;;4.90;;
2470;SDS011;1246;53.558;9.940;2022-08-07T10:02:04;5.00;;;4.60;;
2470;SDS011;1246;53.558;9.940;2022-08-07T10:07:32;5.17;;;4.87;;
2470;SDS011;1246;53.558;9.940;2022-08-07T10:15:48;5.87;;;5.37;;
2470;SDS011;1246;53.558;9.940;2022-08-07T10:26:45;5.60;;;5.10;;
2470;SDS011;1246;53.558;9.940;2022-08-07T10:29:51;5.90;;;5.40;;
2470;SDS011;1246;53.558;9.940;2022-08-07T10:46:54;5.60;;;4.87;;
2470;SDS011;1246;53.558;9.940;2022-08-07T10:49:49;5.07;;;4.57;;
2470;SDS011;1246;53.558;9.940;2022-08-07T10:55:41;5.17;;;4.67;;
2470;SDS011;1246;53.558;9.940;2022-08-07T10:58:25;5.30;;;4.80;;
2470;SDS011;1246;53.558;9.940;2022-08-07T11:03:41;5.10;;;4.70;;
2470;SDS011;1246;53.558;9.940;2022-08-07T11:09:16;5.00;;;4.60;;
2470;SDS011;1246;53.558;9.940;2022-08-07T11:11:50;5.20;;;4.80;;
2470;SDS011;1246;53.558;9.940;2022-08-07T11:14:22;5.10;;;4.70;;
2470;SDS011;1246;53.558;9.940;2022-08-07T11:16:55;5.67;;;5.17;;
2470;SDS011;1246;53.558;9.940;2022-08-07T11:27:26;6.17;;;5.57;;
2470;SDS011;1246;53.558;9.940;2022-08-07T11:30:04;5.70;;;5.20;;
2470;SDS011;1246;53.558;9.940;2022-08-07T11:32:38;5.43;;;5.03;;
2470;SDS011;1246;53.558;9.940;2022-08-07T11:35:14;5.30;;;4.80;;
2470;SDS011;1246;53.558;9.940;2022-08-07T11:51:19;5.40;;;5.00;;
2470;SDS011;1246;53.558;9.940;2022-08-07T11:53:49;7.30;;;5.00;;
2470;SDS011;1246;53.558;9.940;2022-08-07T11:56:27;5.80;;;5.30;;
2470;SDS011;1246;53.558;9.940;2022-08-07T12:01:59;6.17;;;5.67;;
2470;SDS011;1246;53.558;9.940;2022-08-07T12:07:23;5.83;;;4.73;;
2470;SDS011;1246;53.558;9.940;2022-08-07T12:09:52;5.53;;;5.03;;
2470;SDS011;1246;53.558;9.940;2022-08-07T12:12:31;5.50;;;5.10;;
2470;SDS011;1246;53.558;9.940;2022-08-07T12:15:02;5.37;;;4.97;;
2470;SDS011;1246;53.558;9.940;2022-08-07T12:17:37;5.10;;;4.70;;
2470;SDS011;1246;53.558;9.940;2022-08-07T12:20:09;6.00;;;5.40;;
2470;SDS011;1246;53.558;9.940;2022-08-07T12:22:47;5.70;;;5.30;;
2470;SDS011;1246;53.558;9.940;2022-08-07T12:25:40;5.47;;;4.97;;
2470;SDS011;1246;53.558;9.940;2022-08-07T12:28:19;5.57;;;5.07;;
2470;SDS011;1246;53.558;9.940;2022-08-07T12:30:52;6.13;;;5.53;;
2470;SDS011;1246;53.558;9.940;2022-08-07T12:33:18;5.20;;;4.80;;
2470;SDS011;1246;53.558;9.940;2022-08-07T12:35:49;6.00;;;4.80;;
2470;SDS011;1246;53.558;9.940;2022-08-07T12:38:16;6.00;;;5.40;;
2470;SDS011;1246;53.558;9.940;2022-08-07T12:40:43;5.80;;;5.27;;
2470;SDS011;1246;53.558;9.940;2022-08-07T12:43:11;5.60;;;5.13;;
2470;SDS011;1246;53.558;9.940;2022-08-07T12:48:13;5.70;;;5.20;;
2470;SDS011;1246;53.558;9.940;2022-08-07T12:53:42;5.93;;;5.37;;
2470;SDS011;1246;53.558;9.940;2022-08-07T12:56:28;5.90;;;5.40;;
2470;SDS011;1246;53.558;9.940;2022-08-07T12:58:55;5.47;;;5.07;;
2470;SDS011;1246;53.558;9.940;2022-08-07T13:12:55;5.00;;;4.60;;
2470;SDS011;1246;53.558;9.940;2022-08-07T13:15:42;4.90;;;4.50;;
2470;SDS011;1246;53.558;9.940;2022-08-07T13:18:20;5.80;;;5.30;;
2470;SDS011;1246;53.558;9.940;2022-08-07T13:21:01;5.90;;;5.40;;
2470;SDS011;1246;53.558;9.940;2022-08-07T13:23:34;5.37;;;4.90;;
2470;SDS011;1246;53.558;9.940;2022-08-07T13:26:06;5.70;;;5.10;;
2470;SDS011;1246;53.558;9.940;2022-08-07T13:28:42;5.10;;;4.70;;
2470;SDS011;1246;53.558;9.940;2022-08-07T13:36:45;5.53;;;5.13;;
2470;SDS011;1246;53.558;9.940;2022-08-07T13:42:13;5.70;;;5.27;;
2470;SDS011;1246;53.558;9.940;2022-08-07T13:44:39;6.33;;;5.73;;
2470;SDS011;1246;53.558;9.940;2022-08-07T13:47:06;6.33;;;5.73;;
2470;SDS011;1246;53.558;9.940;2022-08-07T13:49:35;6.70;;;6.10;;
2470;SDS011;1246;53.558;9.940;2022-08-07T13:52:03;6.70;;;6.00;;
2470;SDS011;1246;53.558;9.940;2022-08-07T13:54:30;6.10;;;5.60;;
2470;SDS011;1246;53.558;9.940;2022-08-07T13:56:57;5.80;;;5.30;;
2470;SDS011;1246;53.558;9.940;2022-08-07T13:59:28;6.37;;;5.83;;
2470;SDS011;1246;53.558;9.940;2022-08-07T14:02:28;6.03;;;5.63;;
2470;SDS011;1246;53.558;9.940;2022-08-07T14:04:49;5.97;;;5.47;;
2470;SDS011;1246;53.558;9.940;2022-08-07T14:07:17;5.80;;;5.20;;
2470;SDS011;1246;53.558;9.940;2022-08-07T14:09:45;6.47;;;5.20;;
2470;SDS011;1246;53.558;9.940;2022-08-07T14:12:29;5.60;;;5.10;;
2470;SDS011;1246;53.558;9.940;2022-08-07T14:15:04;5.90;;;5.30;;
2470;SDS011;1246;53.558;9.940;2022-08-07T14:17:33;5.97;;;5.37;;
2470;SDS011;1246;53.558;9.940;2022-08-07T14:22:43;5.87;;;5.30;;
2470;SDS011;1246;53.558;9.940;2022-08-07T14:25:32;6.03;;;5.40;;
2470;SDS011;1246;53.558;9.940;2022-08-07T14:28:02;5.97;;;5.37;;
2470;SDS011;1246;53.558;9.940;2022-08-07T14:30:29;6.30;;;5.70;;
2470;SDS011;1246;53.558;9.940;2022-08-07T14:32:58;6.10;;;5.60;;
2470;SDS011;1246;53.558;9.940;2022-08-07T14:35:27;5.70;;;5.20;;
2470;SDS011;1246;53.558;9.940;2022-08-07T14:37:54;5.70;;;5.20;;
2470;SDS011;1246;53.558;9.940;2022-08-07T14:40:21;5.30;;;4.90;;
2470;SDS011;1246;53.558;9.940;2022-08-07T14:42:52;6.53;;;5.60;;
2470;SDS011;1246;53.558;9.940;2022-08-07T14:45:23;8.13;;;5.50;;
2470;SDS011;1246;53.558;9.940;2022-08-07T14:47:50;6.67;;;6.00;;
2470;SDS011;1246;53.558;9.940;2022-08-07T14:50:19;6.10;;;5.50;;
2470;SDS011;1246;53.558;9.940;2022-08-07T14:52:46;6.20;;;5.70;;
2470;SDS011;1246;53.558;9.940;2022-08-07T14:55:13;6.60;;;5.87;;
2470;SDS011;1246;53.558;9.940;2022-08-07T14:57:39;5.70;;;5.20;;
2470;SDS011;1246;53.558;9.940;2022-08-07T15:00:05;6.27;;;5.63;;
2470;SDS011;1246;53.558;9.940;2022-08-07T15:02:33;5.60;;;5.17;;
2470;SDS011;1246;53.558;9.940;2022-08-07T15:05:01;5.70;;;5.17;;
2470;SDS011;1246;53.558;9.940;2022-08-07T15:07:27;5.60;;;5.10;;
2470;SDS011;1246;53.558;9.940;2022-08-07T15:09:54;5.47;;;4.97;;
2470;SDS011;1246;53.558;9.940;2022-08-07T15:12:22;5.83;;;5.33;;
2470;SDS011;1246;53.558;9.940;2022-08-07T15:14:49;5.57;;;5.17;;
2470;SDS011;1246;53.558;9.940;2022-08-07T15:17:19;5.20;;;4.80;;
2470;SDS011;1246;53.558;9.940;2022-08-07T15:19:50;5.63;;;5.10;;
2470;SDS011;1246;53.558;9.940;2022-08-07T15:22:17;6.17;;;5.67;;
2470;SDS011;1246;53.558;9.940;2022-08-07T15:24:45;5.77;;;5.27;;
2470;SDS011;1246;53.558;9.940;2022-08-07T15:27:16;5.80;;;5.30;;
2470;SDS011;1246;53.558;9.940;2022-08-07T15:29:45;7.17;;;5.70;;
2470;SDS011;1246;53.558;9.940;2022-08-07T15:32:11;6.13;;;5.53;;
2470;SDS011;1246;53.558;9.940;2022-08-07T15:34:38;5.77;;;5.17;;
2470;SDS011;1246;53.558;9.940;2022-08-07T15:37:07;7.87;;;5.80;;
2470;SDS011;1246;53.558;9.940;2022-08-07T15:39:39;6.33;;;5.73;;
2470;SDS011;1246;53.558;9.940;2022-08-07T15:42:07;6.20;;;5.23;;
2470;SDS011;1246;53.558;9.940;2022-08-07T15:44:44;6.17;;;5.53;;
2470;SDS011;1246;53.558;9.940;2022-08-07T15:47:12;5.90;;;5.40;;
2470;SDS011;1246;53.558;9.940;2022-08-07T15:49:38;6.23;;;5.70;;
2470;SDS011;1246;53.558;9.940;2022-08-07T15:52:04;10.10;;;6.83;;
2470;SDS011;1246;53.558;9.940;2022-08-07T15:54:36;5.50;;;5.00;;
2470;SDS011;1246;53.558;9.940;2022-08-07T15:57:03;6.83;;;5.70;;
2470;SDS011;1246;53.558;9.940;2022-08-07T15:59:31;6.33;;;5.73;;
2470;SDS011;1246;53.558;9.940;2022-08-07T16:01:57;6.70;;;6.00;;
2470;SDS011;1246;53.558;9.940;2022-08-07T16:04:31;5.80;;;5.30;;
2470;SDS011;1246;53.558;9.940;2022-08-07T16:06:58;5.57;;;5.00;;
2470;SDS011;1246;53.558;9.940;2022-08-07T16:09:25;10.10;;;5.20;;
2470;SDS011;1246;53.558;9.940;2022-08-07T16:23:15;6.23;;;5.40;;
2470;SDS011;1246;53.558;9.940;2022-08-07T16:31:40;7.83;;;6.07;;
2470;SDS011;1246;53.558;9.940;2022-08-07T16:34:21;5.63;;;5.17;;
2470;SDS011;1246;53.558;9.940;2022-08-07T16:53:02;5.83;;;5.23;;
2470;SDS011;1246;53.558;9.940;2022-08-07T16:55:37;5.80;;;5.20;;
2470;SDS011;1246;53.558;9.940;2022-08-07T17:09:13;5.57;;;4.93;;
2470;SDS011;1246;53.558;9.940;2022-08-07T17:12:14;5.47;;;4.97;;
2470;SDS011;1246;53.558;9.940;2022-08-07T17:14:51;5.40;;;4.90;;
2470;SDS011;1246;53.558;9.940;2022-08-07T17:17:29;5.60;;;5.10;;
2470;SDS011;1246;53.558;9.940;2022-08-07T17:19:57;6.60;;;5.50;;
2470;SDS011;1246;53.558;9.940;2022-08-07T17:22:38;6.33;;;5.70;;
2470;SDS011;1246;53.558;9.940;2022-08-07T17:25:19;6.30;;;5.67;;
2470;SDS011;1246;53.558;9.940;2022-08-07T17:30:45;5.67;;;5.17;;
2470;SDS011;1246;53.558;9.940;2022-08-07T17:33:20;5.57;;;5.07;;
2470;SDS011;1246;53.558;9.940;2022-08-07T17:35:55;5.90;;;5.30;;
2470;SDS011;1246;53.558;9.940;2022-08-07T17:41:11;5.53;;;5.03;;
2470;SDS011;1246;53.558;9.940;2022-08-07T17:43:42;6.07;;;5.57;;
2470;SDS011;1246;53.558;9.940;2022-08-07T17:46:20;6.77;;;6.07;;
2470;SDS011;1246;53.558;9.940;2022-08-07T17:49:02;6.20;;;5.60;;
2470;SDS011;1246;53.558;9.940;2022-08-07T17:51:46;5.70;;;5.20;;
2470;SDS011;1246;53.558;9.940;2022-08-07T17:54:19;8.47;;;7.57;;
2470;SDS011;1246;53.558;9.940;2022-08-07T17:56:52;6.30;;;5.80;;
2470;SDS011;1246;53.558;9.940;2022-08-07T17:59:24;6.60;;;5.73;;
2470;SDS011;1246;53.558;9.940;2022-08-07T18:04:46;7.37;;;5.53;;
2470;SDS011;1246;53.558;9.940;2022-08-07T18:10:01;6.30;;;5.70;;
2470;SDS011;1246;53.558;9.940;2022-08-07T18:15:25;5.33;;;4.83;;
2470;SDS011;1246;53.558;9.940;2022-08-07T18:18:00;5.93;;;5.40;;
2470;SDS011;1246;53.558;9.940;2022-08-07T18:20:32;6.20;;;5.60;;
2470;SDS011;1246;53.558;9.940;2022-08-07T18:23:09;6.67;;;5.97;;
2470;SDS011;1246;53.558;9.940;2022-08-07T18:25:37;6.73;;;5.50;;
2470;SDS011;1246;53.558;9.940;2022-08-07T18:28:11;7.97;;;7.17;;
2470;SDS011;1246;53.558;9.940;2022-08-07T18:36:50;7.50;;;5.57;;
2470;SDS011;1246;53.558;9.940;2022-08-07T18:47:16;5.90;;;5.30;;
2470;SDS011;1246;53.558;9.940;2022-08-07T18:55:22;8.00;;;5.87;;
2470;SDS011;1246;53.558;9.940;2022-08-07T19:00:42;6.40;;;5.80;;
2470;SDS011;1246;53.558;9.940;2022-08-07T19:03:16;8.47;;;6.40;;
2470;SDS011;1246;53.558;9.940;2022-08-07T19:05:44;8.50;;;6.03;;
2470;SDS011;1246;53.558;9.940;2022-08-07T19:08:18;7.80;;;7.00;;
2470;SDS011;1246;53.558;9.940;2022-08-07T19:10:51;9.17;;;5.93;;
2470;SDS011;1246;53.558;9.940;2022-08-07T19:16:54;5.90;;;5.30;;
2470;SDS011;1246;53.558;9.940;2022-08-07T19:19:30;6.60;;;5.37;;
2470;SDS011;1246;53.558;9.940;2022-08-07T19:22:13;8.67;;;5.50;;
2470;SDS011;1246;53.558;9.940;2022-08-07T19:24:44;6.60;;;5.60;;
2470;SDS011;1246;53.558;9.940;2022-08-07T19:27:23;7.93;;;5.30;;
2470;SDS011;1246;53.558;9.940;2022-08-07T19:29:51;5.87;;;5.30;;
2470;SDS011;1246;53.558;9.940;2022-08-07T19:32:22;6.43;;;5.33;;
2470;SDS011;1246;53.558;9.940;2022-08-07T19:34:52;6.33;;;5.70;;
2470;SDS011;1246;53.558;9.940;2022-08-07T19:37:20;7.53;;;6.77;;
2470;SDS011;1246;53.558;9.940;2022-08-07T19:39:49;6.03;;;5.40;;
2470;SDS011;1246;53.558;9.940;2022-08-07T19:42:25;8.67;;;7.37;;
2470;SDS011;1246;53.558;9.940;2022-08-07T19:44:52;6.90;;;6.20;;
2470;SDS011;1246;53.558;9.940;2022-08-07T19:47:21;9.23;;;8.33;;
2470;SDS011;1246;53.558;9.940;2022-08-07T19:49:52;7.13;;;6.20;;
2470;SDS011;1246;53.558;9.940;2022-08-07T19:52:19;7.17;;;6.47;;
2470;SDS011;1246;53.558;9.940;2022-08-07T19:54:46;9.60;;;6.97;;
2470;SDS011;1246;53.558;9.940;2022-08-07T19:57:13;9.37;;;8.00;;
2470;SDS011;1246;53.558;9.940;2022-08-07T19:59:44;8.30;;;7.50;;
2470;SDS011;1246;53.558;9.940;2022-08-07T20:02:11;7.53;;;6.30;;
2470;SDS011;1246;53.558;9.940;2022-08-07T20:04:41;7.30;;;6.13;;
2470;SDS011;1246;53.558;9.940;2022-08-07T20:07:08;9.00;;;8.10;;
2470;SDS011;1246;53.558;9.940;2022-08-07T20:09:41;8.07;;;7.27;;
2470;SDS011;1246;53.558;9.940;2022-08-07T20:12:08;10.97;;;9.67;;
2470;SDS011;1246;53.558;9.940;2022-08-07T20:14:37;8.97;;;8.07;;
2470;SDS011;1246;53.558;9.940;2022-08-07T20:17:03;7.63;;;6.50;;
2470;SDS011;1246;53.558;9.940;2022-08-07T20:19:30;7.70;;;6.73;;
2470;SDS011;1246;53.558;9.940;2022-08-07T20:21:56;9.63;;;6.77;;
2470;SDS011;1246;53.558;9.940;2022-08-07T20:24:26;7.77;;;7.07;;
2470;SDS011;1246;53.558;9.940;2022-08-07T20:26:57;7.20;;;5.97;;
2470;SDS011;1246;53.558;9.940;2022-08-07T20:29:36;8.40;;;6.67;;
2470;SDS011;1246;53.558;9.940;2022-08-07T20:32:08;9.93;;;6.60;;
2470;SDS011;1246;53.558;9.940;2022-08-07T20:34:35;8.10;;;6.57;;
2470;SDS011;1246;53.558;9.940;2022-08-07T20:37:02;7.97;;;5.80;;
2470;SDS011;1246;53.558;9.940;2022-08-07T20:39:33;8.57;;;7.70;;
2470;SDS011;1246;53.558;9.940;2022-08-07T20:42:03;12.57;;;6.90;;
2470;SDS011;1246;53.558;9.940;2022-08-07T20:44:34;9.93;;;8.93;;
2470;SDS011;1246;53.558;9.940;2022-08-07T20:47:03;7.10;;;6.40;;
2470;SDS011;1246;53.558;9.940;2022-08-07T20:49:30;11.60;;;6.80;;
2470;SDS011;1246;53.558;9.940;2022-08-07T20:51:57;9.33;;;7.80;;
2470;SDS011;1246;53.558;9.940;2022-08-07T20:54:25;9.07;;;7.90;;
2470;SDS011;1246;53.558;9.940;2022-08-07T20:56:51;8.80;;;7.90;;
2470;SDS011;1246;53.558;9.940;2022-08-07T20:59:20;10.40;;;8.87;;
2470;SDS011;1246;53.558;9.940;2022-08-07T21:01:47;9.60;;;7.00;;